Time;durP1;ratioP1;P1;durP2;ratioP2;P2;SDS_P1;SDS_P2;PMS_P1;PMS_P2;Temp;Humidity;BMP_temperature;BMP_pressure;BME280_temperature;BME280_humidity;BME280_pressure;Samples;Min_cycle;Max_cycle;Signal;HPM_P1;HPM_P2
2021/07/05 00:00:31;;;;;;;6.08;4.20;;;;;;;15.83;67.81;95970.88;1636340;86;21300;-81
2021/07/05 00:02:58;;;;;;;5.08;4.53;;;;;;;15.82;67.84;95977.13;1620318;87;21015;-81
2021/07/05 00:05:24;;;;;;;5.65;4.47;;;;;;;15.79;68.10;95973.66;1615645;87;21053;-81
2021/07/05 00:07:50;;;;;;;6.40;4.15;;;;;;;15.77;68.22;95963.89;1607380;87;20982;-81
2021/07/05 00:10:19;;;;;;;6.00;3.87;;;;;;;15.77;68.27;95971.23;1613246;87;20977;-80
2021/07/05 00:12:45;;;;;;;4.60;4.15;;;;;;;15.78;67.89;95969.41;1614081;87;21035;-81
2021/07/05 00:15:19;;;;;;;5.25;4.45;;;;;;;15.78;67.50;95969.41;1632434;87;21006;-81
2021/07/05 00:17:47;;;;;;;5.50;4.10;;;;;;;15.77;68.01;95969.92;1612931;87;21043;-81
2021/07/05 00:20:13;;;;;;;6.22;4.40;;;;;;;15.75;68.00;95974.59;1633883;86;21300;-81
2021/07/05 00:22:39;;;;;;;4.70;4.30;;;;;;;15.71;67.63;95976.06;1602138;87;21081;-81
2021/07/05 00:25:06;;;;;;;5.03;4.17;;;;;;;15.70;66.78;95978.91;1634840;87;20958;-81
2021/07/05 00:27:31;;;;;;;5.80;4.78;;;;;;;15.67;66.95;95973.61;1599600;87;21932;-81
2021/07/05 00:29:57;;;;;;;5.03;4.53;;;;;;;15.65;67.56;95973.05;1634896;87;20979;-81
2021/07/05 00:32:23;;;;;;;4.47;4.00;;;;;;;15.63;67.78;95971.16;1603080;87;20994;-80
2021/07/05 00:34:49;;;;;;;4.72;3.77;;;;;;;15.60;67.57;95973.69;1611854;87;21009;-81
2021/07/05 00:37:14;;;;;;;4.65;4.25;;;;;;;15.59;67.95;95971.30;1614613;87;20950;-81
2021/07/05 00:39:40;;;;;;;5.03;4.42;;;;;;;15.60;67.84;95971.07;1635050;87;21051;-81
2021/07/05 00:42:06;;;;;;;4.78;4.28;;;;;;;15.58;67.68;95970.98;1612998;87;21375;-80
2021/07/05 00:44:32;;;;;;;5.40;4.90;;;;;;;15.54;67.60;95970.63;1620318;87;20899;-80
2021/07/05 00:46:58;;;;;;;5.25;4.28;;;;;;;15.51;67.47;95969.77;1634672;87;21046;-81
2021/07/05 00:49:24;;;;;;;5.37;4.67;;;;;;;15.46;67.56;95967.03;1613871;87;21263;-80
2021/07/05 00:51:49;;;;;;;6.17;4.87;;;;;;;15.42;67.78;95967.16;1584941;89;21026;-81
2021/07/05 00:54:15;;;;;;;5.00;4.20;;;;;;;15.41;67.91;95966.88;1615055;87;21002;-81
2021/07/05 00:56:42;;;;;;;4.53;4.12;;;;;;;15.42;68.24;95968.98;1611844;87;21391;-80
2021/07/05 00:59:07;;;;;;;5.20;4.70;;;;;;;15.44;68.35;95970.87;1605638;87;20987;-81
2021/07/05 01:01:34;;;;;;;5.95;4.92;;;;;;;15.46;68.45;95970.16;1629877;87;21019;-81
2021/07/05 01:04:00;;;;;;;5.97;5.30;;;;;;;15.45;68.50;95963.30;1640870;87;20959;-81
2021/07/05 01:06:27;;;;;;;6.83;5.45;;;;;;;15.45;68.63;95965.91;1641844;87;21007;-81
2021/07/05 01:08:54;;;;;;;5.87;5.35;;;;;;;15.42;68.52;95967.16;1641417;87;21024;-81
2021/07/05 01:11:21;;;;;;;5.50;5.00;;;;;;;15.40;68.96;95961.36;1640168;86;21007;-81
2021/07/05 01:13:47;;;;;;;5.72;4.97;;;;;;;15.41;69.09;95966.88;1629074;87;21051;-80
2021/07/05 01:16:13;;;;;;;4.80;4.37;;;;;;;15.42;69.08;95965.86;1657798;86;21004;-81
2021/07/05 01:18:39;;;;;;;5.90;5.20;;;;;;;15.44;68.70;95966.42;1640919;86;21022;-80
2021/07/05 01:21:05;;;;;;;5.67;5.08;;;;;;;15.46;68.62;95969.65;1640331;87;21391;-81
2021/07/05 01:23:31;;;;;;;6.10;5.50;;;;;;;15.47;68.95;95975.17;1640821;86;21285;-80
2021/07/05 01:25:56;;;;;;;6.45;5.58;;;;;;;15.48;69.18;95973.35;1646271;86;20950;-81
2021/07/05 01:28:23;;;;;;;5.95;5.42;;;;;;;15.48;69.43;95982.00;1651402;86;20977;-80
2021/07/05 01:30:49;;;;;;;6.05;5.50;;;;;;;15.47;69.19;95985.64;1627160;86;21724;-80
2021/07/05 01:33:15;;;;;;;5.92;5.40;;;;;;;15.47;69.21;95983.03;1659283;86;21356;-81
2021/07/05 01:35:43;;;;;;;6.72;4.85;;;;;;;15.49;69.26;95982.30;1642196;86;21088;-80
2021/07/05 01:38:19;;;;;;;5.80;5.15;;;;;;;15.51;69.76;95980.25;1660493;86;20974;-80
2021/07/05 01:41:01;;;;;;;6.05;5.45;;;;;;;15.54;69.82;95979.00;1641293;86;20963;-81
2021/07/05 01:43:28;;;;;;;6.37;5.67;;;;;;;15.54;70.16;95977.18;1639665;87;20930;-81
2021/07/05 01:45:54;;;;;;;6.45;5.83;;;;;;;15.53;70.26;95978.20;1639430;86;21003;-81
2021/07/05 01:48:21;;;;;;;7.90;6.10;;;;;;;15.52;70.76;95976.61;1619711;86;21334;-81
2021/07/05 01:50:47;;;;;;;6.47;5.58;;;;;;;15.47;70.48;95973.86;1634323;87;21079;-80
2021/07/05 01:53:12;;;;;;;6.17;5.20;;;;;;;15.52;70.44;95981.84;1641606;86;21106;-80
2021/07/05 01:55:38;;;;;;;5.17;4.70;;;;;;;15.53;70.21;95980.82;1661541;86;20947;-81
2021/07/05 01:58:06;;;;;;;8.13;5.72;;;;;;;15.55;70.11;95983.22;1628553;87;21291;-81
2021/07/05 02:00:34;;;;;;;6.37;5.78;;;;;;;15.54;70.36;95984.23;1608974;87;20963;-81
2021/07/05 02:03:00;;;;;;;6.12;5.37;;;;;;;15.53;70.29;95984.75;1633644;86;21063;-80
2021/07/05 02:05:27;;;;;;;6.67;5.70;;;;;;;15.51;69.86;95981.55;1640947;86;21001;-81
2021/07/05 02:07:53;;;;;;;5.72;5.12;;;;;;;15.50;69.86;95986.50;1655743;86;21016;-81
2021/07/05 02:10:26;;;;;;;5.58;5.05;;;;;;;15.49;69.86;95991.97;1611695;87;20998;-81
2021/07/05 02:12:54;;;;;;;5.15;4.65;;;;;;;15.48;69.98;95985.93;1659122;86;21427;-81
2021/07/05 02:15:20;;;;;;;6.15;5.10;;;;;;;15.49;70.21;95991.97;1641227;86;20970;-80
2021/07/05 02:17:46;;;;;;;6.00;5.40;;;;;;;15.49;69.95;95996.69;1640725;86;21022;-81
2021/07/05 02:20:19;;;;;;;5.90;5.30;;;;;;;15.48;69.98;95992.48;1659118;86;21264;-81
2021/07/05 02:22:45;;;;;;;6.40;5.80;;;;;;;15.44;69.81;95984.75;1619795;86;21069;-81
2021/07/05 02:25:13;;;;;;;6.42;5.67;;;;;;;15.41;70.12;95987.82;1640484;86;21023;-81
2021/07/05 02:27:40;;;;;;;6.15;5.55;;;;;;;15.38;70.07;95981.72;1641435;86;20948;-80
2021/07/05 02:30:10;;;;;;;5.95;5.08;;;;;;;15.35;70.06;95983.98;1658434;86;21257;-81
2021/07/05 02:32:36;;;;;;;5.95;5.35;;;;;;;15.34;70.13;95979.27;1639841;86;21291;-81
2021/07/05 02:35:05;;;;;;;6.28;5.55;;;;;;;15.35;70.16;95985.30;1622441;86;21065;-81
2021/07/05 02:37:30;;;;;;;7.40;5.62;;;;;;;15.36;70.08;95989.52;1640491;86;20954;-80
2021/07/05 02:39:57;;;;;;;5.85;5.35;;;;;;;15.35;69.97;95990.02;1640461;86;21045;-80
2021/07/05 02:42:23;;;;;;;6.25;5.65;;;;;;;15.33;69.97;95988.65;1630363;86;21315;-81
2021/07/05 02:44:49;;;;;;;6.75;5.72;;;;;;;15.30;70.12;95985.46;1637422;86;21013;-80
2021/07/05 02:47:15;;;;;;;6.53;5.92;;;;;;;15.27;70.18;95989.00;1641665;86;20920;-81
2021/07/05 02:49:41;;;;;;;5.33;4.62;;;;;;;15.25;70.33;95985.81;1641865;86;21283;-81
2021/07/05 02:52:06;;;;;;;5.53;4.87;;;;;;;15.25;70.44;95985.81;1658139;86;21037;-80
2021/07/05 02:54:32;;;;;;;6.53;5.45;;;;;;;15.27;70.36;95989.80;1641003;86;20958;-80
2021/07/05 02:56:58;;;;;;;5.65;5.15;;;;;;;15.29;70.30;95997.43;1637407;86;20986;-80
2021/07/05 02:59:24;;;;;;;6.67;5.60;;;;;;;15.29;70.26;95996.12;1650289;86;20966;-80
2021/07/05 03:01:49;;;;;;;6.17;5.58;;;;;;;15.29;70.32;95996.95;1627718;86;21324;-80
2021/07/05 03:04:16;;;;;;;5.75;5.12;;;;;;;15.28;70.66;96002.38;1645933;86;21312;-81
2021/07/05 03:06:42;;;;;;;5.67;5.10;;;;;;;15.26;70.79;95993.44;1639706;86;20954;-81
2021/07/05 03:09:08;;;;;;;5.70;5.10;;;;;;;15.25;70.87;96001.52;1631945;86;21010;-80
2021/07/05 03:11:33;;;;;;;5.83;4.75;;;;;;;15.27;71.04;96003.40;1637939;86;21054;-81
2021/07/05 03:14:00;;;;;;;7.00;5.37;;;;;;;15.28;71.22;95996.63;1632740;87;21313;-80
2021/07/05 03:16:26;;;;;;;6.40;5.80;;;;;;;15.29;70.78;95998.26;1620394;87;21045;-81
2021/07/05 03:18:52;;;;;;;6.25;5.53;;;;;;;15.29;70.90;95998.73;1630632;86;21015;-81
2021/07/05 03:21:18;;;;;;;7.58;6.17;;;;;;;15.29;71.15;96003.49;1644760;86;21350;-80
2021/07/05 03:23:44;;;;;;;7.08;5.72;;;;;;;15.30;71.17;96008.22;1643317;86;21022;-81
2021/07/05 03:26:10;;;;;;;6.12;5.30;;;;;;;15.31;71.47;96006.69;1643180;86;21112;-81
2021/07/05 03:28:35;;;;;;;6.55;5.60;;;;;;;15.35;71.47;96004.94;1642710;86;21036;-81
2021/07/05 03:31:02;;;;;;;6.40;5.40;;;;;;;15.37;71.44;96015.98;1629634;87;21009;-80
2021/07/05 03:33:27;;;;;;;6.85;6.12;;;;;;;15.40;71.11;96013.72;1643036;86;20977;-80
2021/07/05 03:35:53;;;;;;;7.97;5.70;;;;;;;15.45;71.40;96015.66;1645480;86;20957;-80
2021/07/05 03:38:19;;;;;;;6.65;6.05;;;;;;;15.46;71.45;96018.09;1617086;87;21419;-81
2021/07/05 03:40:46;;;;;;;7.15;6.17;;;;;;;15.46;71.49;96019.39;1639663;86;20935;-80
2021/07/05 03:43:12;;;;;;;5.80;5.20;;;;;;;15.44;71.67;96013.55;1656884;86;21291;-80
2021/07/05 03:45:38;;;;;;;6.70;5.45;;;;;;;15.46;71.71;96017.28;1658957;86;20911;-80
2021/07/05 03:48:06;;;;;;;6.37;5.15;;;;;;;15.45;71.53;96013.04;1638326;86;20983;-81
2021/07/05 03:50:32;;;;;;;5.62;5.12;;;;;;;15.48;71.59;96019.17;1626622;86;21381;-81
2021/07/05 03:52:57;;;;;;;5.80;5.20;;;;;;;15.48;71.77;96009.50;1616162;86;20997;-81
2021/07/05 03:55:24;;;;;;;6.40;5.67;;;;;;;15.52;71.93;96012.47;1641673;86;20934;-81
2021/07/05 03:57:51;;;;;;;6.25;5.67;;;;;;;15.51;72.10;96015.59;1650833;86;21006;-81
2021/07/05 04:00:21;;;;;;;5.83;5.20;;;;;;;15.51;72.15;96015.59;1654591;86;21013;-80
2021/07/05 04:02:46;;;;;;;5.87;5.22;;;;;;;15.50;72.09;96019.23;1633372;86;21074;-80
2021/07/05 04:05:13;;;;;;;5.28;4.78;;;;;;;15.51;72.12;96021.34;1614766;87;20995;-81
2021/07/05 04:07:42;;;;;;;6.22;5.55;;;;;;;15.52;72.07;96021.63;1615045;87;21046;-81
2021/07/05 04:10:08;;;;;;;6.42;5.50;;;;;;;15.54;72.16;96026.13;1610355;87;21036;-80
2021/07/05 04:12:34;;;;;;;6.00;5.40;;;;;;;15.56;72.34;96024.09;1613040;87;20958;-80
2021/07/05 04:15:00;;;;;;;6.37;4.70;;;;;;;15.55;72.73;96024.59;1624997;87;21059;-81
2021/07/05 04:17:26;;;;;;;6.10;5.35;;;;;;;15.52;73.06;96030.28;1634051;87;21315;-81
2021/07/05 04:19:52;;;;;;;5.83;5.20;;;;;;;15.51;73.39;96030.00;1615066;87;20967;-81
2021/07/05 04:22:18;;;;;;;5.70;5.10;;;;;;;15.51;73.50;96030.51;1634587;87;20994;-80
2021/07/05 04:24:45;;;;;;;5.50;4.90;;;;;;;15.53;73.39;96027.95;1596352;87;21322;-81
2021/07/05 04:27:11;;;;;;;7.45;5.97;;;;;;;15.57;73.37;96029.61;1603089;87;21036;-81
2021/07/05 04:29:37;;;;;;;6.10;5.50;;;;;;;15.63;73.48;96036.63;1606668;87;20982;-80
2021/07/05 04:32:04;;;;;;;7.62;6.60;;;;;;;15.67;73.46;96039.60;1613084;87;21355;-80
2021/07/05 04:34:30;;;;;;;6.62;5.85;;;;;;;15.70;73.76;96045.19;1635382;87;21027;-81
2021/07/05 04:36:56;;;;;;;5.72;5.22;;;;;;;15.73;73.95;96047.88;1629295;87;21112;-81
2021/07/05 04:39:22;;;;;;;6.10;5.47;;;;;;;15.76;74.11;96050.84;1614287;87;21057;-81
2021/07/05 04:41:47;;;;;;;6.28;5.03;;;;;;;15.82;74.37;96054.41;1621442;87;21438;-80
2021/07/05 04:44:14;;;;;;;5.72;5.12;;;;;;;15.87;74.59;96055.33;1612988;87;21049;-81
2021/07/05 04:46:46;;;;;;;5.85;5.33;;;;;;;15.94;74.72;96055.23;1614871;87;21091;-80
2021/07/05 04:49:08;;;;;;;6.40;5.80;;;;;;;15.96;75.13;96054.52;1619256;87;21017;-81
2021/07/05 04:51:34;;;;;;;7.45;6.10;;;;;;;15.96;75.34;96054.52;1634579;87;21083;-80
2021/07/05 04:53:59;;;;;;;5.97;5.40;;;;;;;15.98;75.51;96054.30;1637300;87;21048;-81
2021/07/05 04:56:25;;;;;;;6.47;5.37;;;;;;;16.01;75.61;96045.98;1614907;87;21009;-81
2021/07/05 04:58:51;;;;;;;5.67;5.17;;;;;;;16.04;75.87;96041.60;1614564;87;21048;-80
2021/07/05 05:01:16;;;;;;;5.92;5.42;;;;;;;;;;1620277;87;21258;-81
2021/07/05 05:03:42;;;;;;;8.40;5.87;;;;;;;16.15;75.73;96044.77;1612503;88;21061;-81
2021/07/05 05:06:08;;;;;;;6.53;5.92;;;;;;;16.25;75.69;96045.00;1602353;87;21062;-81
2021/07/05 05:08:34;;;;;;;5.75;5.22;;;;;;;16.29;75.83;96040.94;1622803;86;21890;-80
2021/07/05 05:11:00;;;;;;;5.75;5.17;;;;;;;16.33;76.01;96046.00;1648778;86;20986;-81
2021/07/05 05:13:28;;;;;;;6.95;5.15;;;;;;;16.36;76.04;96044.23;1644970;86;21018;-80
2021/07/05 05:15:54;;;;;;;5.60;5.08;;;;;;;16.42;75.96;96045.14;1656364;86;20994;-81
2021/07/05 05:18:20;;;;;;;7.03;6.05;;;;;;;16.46;76.11;96045.80;1624763;86;20945;-81
2021/07/05 05:20:46;;;;;;;6.80;6.17;;;;;;;16.50;76.23;96041.69;1639533;86;21525;-81
2021/07/05 05:23:11;;;;;;;5.92;5.42;;;;;;;16.55;76.40;96046.77;1635582;86;20995;-80
2021/07/05 05:25:37;;;;;;;5.40;4.90;;;;;;;16.60;76.17;96052.14;1642123;86;20971;-81
2021/07/05 05:28:04;;;;;;;6.30;5.70;;;;;;;16.63;76.17;96052.48;1643950;86;20928;-81
2021/07/05 05:30:29;;;;;;;7.10;6.05;;;;;;;16.68;76.15;96051.31;1640523;87;20970;-81
2021/07/05 05:32:55;;;;;;;5.95;5.33;;;;;;;16.74;76.43;96047.77;1648564;86;21031;-81
2021/07/05 05:35:23;;;;;;;6.03;5.42;;;;;;;16.78;76.41;96044.20;1649177;86;21004;-80
2021/07/05 05:37:51;;;;;;;6.90;5.62;;;;;;;16.80;76.59;96036.38;1649213;85;21012;-81
2021/07/05 05:40:17;;;;;;;6.10;5.50;;;;;;;16.85;76.65;96034.88;1628779;87;21049;-81
2021/07/05 05:42:43;;;;;;;5.47;4.97;;;;;;;16.90;76.54;96034.47;1655361;86;20998;-81
2021/07/05 05:45:10;;;;;;;5.92;5.33;;;;;;;16.96;76.25;96029.63;1631792;86;21014;-81
2021/07/05 05:47:35;;;;;;;7.25;5.60;;;;;;;17.03;76.44;96033.44;1634973;86;21005;-81
2021/07/05 05:50:01;;;;;;;6.28;5.65;;;;;;;17.10;76.37;96032.30;1654091;86;21284;-81
2021/07/05 05:52:27;;;;;;;6.28;5.62;;;;;;;17.17;75.84;96033.98;1646662;86;21070;-81
2021/07/05 05:54:53;;;;;;;6.30;5.70;;;;;;;17.22;76.39;96039.34;1655207;86;21046;-80
2021/07/05 05:57:29;;;;;;;6.35;5.12;;;;;;;17.28;76.52;96047.11;1659900;86;21969;-80
2021/07/05 05:59:58;;;;;;;5.42;4.92;;;;;;;17.35;75.89;96053.53;1639766;86;21023;-81
2021/07/05 06:02:25;;;;;;;6.55;5.70;;;;;;;17.44;75.63;96055.30;1640237;86;21089;-81
2021/07/05 06:04:51;;;;;;;6.05;5.45;;;;;;;17.53;75.44;96049.94;1628560;86;21069;-80
2021/07/05 06:07:17;;;;;;;8.13;6.70;;;;;;;17.59;75.49;96051.14;1634316;87;20974;-80
2021/07/05 06:09:43;;;;;;;7.12;5.90;;;;;;;17.63;75.55;96050.95;1617127;87;20998;-81
2021/07/05 06:12:10;;;;;;;6.45;5.85;;;;;;;17.70;76.26;96048.20;1635826;87;21069;-81
2021/07/05 06:14:35;;;;;;;6.95;6.15;;;;;;;17.77;75.98;96054.13;1618769;87;21394;-81
2021/07/05 06:17:02;;;;;;;6.67;6.05;;;;;;;17.85;76.03;96048.48;1631715;87;20970;-80
2021/07/05 06:19:27;;;;;;;6.47;5.70;;;;;;;17.95;76.20;96054.45;1610615;87;20982;-81
2021/07/05 06:21:53;;;;;;;6.72;6.12;;;;;;;18.01;76.53;96054.81;1618533;87;21042;-81
2021/07/05 06:24:19;;;;;;;8.80;8.00;;;;;;;18.10;76.62;96053.92;1616985;87;20985;-81
2021/07/05 06:26:45;;;;;;;8.10;6.47;;;;;;;18.21;75.54;96057.78;1617023;87;21033;-81
2021/07/05 06:29:10;;;;;;;6.92;6.22;;;;;;;18.33;76.26;96058.24;1616749;87;21080;-80
2021/07/05 06:31:36;;;;;;;5.72;5.12;;;;;;;18.40;76.36;96057.59;1617602;87;20966;-81
2021/07/05 06:34:03;;;;;;;6.67;5.97;;;;;;;18.45;76.23;96058.98;1615730;87;21290;-81
2021/07/05 06:36:29;;;;;;;7.47;6.83;;;;;;;18.50;75.85;96054.58;1628492;87;21017;-82
2021/07/05 06:38:55;;;;;;;7.12;6.42;;;;;;;18.54;75.80;96058.33;1623969;87;21064;-81
2021/07/05 06:41:21;;;;;;;7.47;6.78;;;;;;;18.59;75.91;96059.73;1617539;87;21354;-81
2021/07/05 06:43:47;;;;;;;7.65;6.65;;;;;;;18.67;75.78;96063.82;1592724;87;21042;-81
2021/07/05 06:46:13;;;;;;;6.67;5.97;;;;;;;18.72;76.12;96061.29;1604116;87;20994;-80
2021/07/05 06:48:41;;;;;;;7.42;6.40;;;;;;;18.84;76.12;96065.92;1615494;87;21032;-81
2021/07/05 06:51:06;;;;;;;7.95;7.08;;;;;;;18.95;75.83;96066.88;1626720;87;20995;-81
2021/07/05 06:53:32;;;;;;;7.55;6.70;;;;;;;19.10;75.51;96063.66;1610069;87;21040;-81
2021/07/05 06:55:57;;;;;;;7.80;7.00;;;;;;;19.23;75.79;96063.31;1626842;87;21319;-81
2021/07/05 06:58:23;;;;;;;7.75;7.03;;;;;;;19.35;74.90;96058.70;1622809;87;20977;-81
2021/07/05 07:00:49;;;;;;;8.50;7.55;;;;;;;19.53;75.30;96066.06;1613893;87;21009;-81
2021/07/05 07:03:15;;;;;;;7.75;6.85;;;;;;;19.68;74.82;96055.70;1607705;87;21094;-81
2021/07/05 07:05:41;;;;;;;7.65;6.92;;;;;;;19.79;75.04;96055.57;1613313;86;21094;-81
2021/07/05 07:08:07;;;;;;;7.25;6.35;;;;;;;19.90;74.67;96060.44;1645076;86;21008;-81
2021/07/05 07:10:33;;;;;;;8.95;6.55;;;;;;;19.96;73.64;96058.64;1647321;86;21301;-81
2021/07/05 07:12:59;;;;;;;7.47;6.60;;;;;;;20.05;72.71;96061.91;1654738;85;20980;-81
2021/07/05 07:15:33;;;;;;;7.92;7.12;;;;;;;20.12;73.41;96062.23;1656537;85;20988;-81
2021/07/05 07:20:25;;;;;;;7.33;6.33;;;;;;;20.31;73.60;96066.89;1647842;85;21013;-81
2021/07/05 07:22:50;;;;;;;6.50;5.90;;;;;;;20.33;73.67;96071.39;1664517;85;21021;-81
2021/07/05 07:25:16;;;;;;;7.40;6.47;;;;;;;20.30;73.57;96069.25;1654019;85;21344;-81
2021/07/05 07:27:42;;;;;;;7.50;6.80;;;;;;;20.29;73.13;96066.87;1625553;86;21068;-81
2021/07/05 07:30:09;;;;;;;7.58;6.87;;;;;;;20.28;73.97;96061.32;1650915;87;21393;-81
2021/07/05 07:32:35;;;;;;;6.67;5.92;;;;;;;20.21;73.71;96064.70;1654577;85;21272;-81
2021/07/05 07:35:01;;;;;;;7.05;6.20;;;;;;;20.24;73.94;96057.08;1654399;85;21019;-81
2021/07/05 07:37:26;;;;;;;8.30;6.35;;;;;;;20.35;73.28;96060.61;1660672;85;21343;-81
2021/07/05 07:39:59;;;;;;;7.58;6.47;;;;;;;20.47;73.03;96058.61;1636042;86;21042;-81
2021/07/05 07:42:23;;;;;;;7.10;6.50;;;;;;;20.55;72.92;96062.12;1643932;86;20982;-81
2021/07/05 07:44:48;;;;;;;7.50;6.87;;;;;;;20.71;73.09;96056.43;1667607;85;21599;-81
2021/07/05 07:47:14;;;;;;;7.15;6.45;;;;;;;20.88;70.05;96058.92;1649341;85;21024;-81
2021/07/05 07:49:40;;;;;;;7.70;6.90;;;;;;;21.03;69.51;96052.41;1647351;87;21029;-82
2021/07/05 07:52:06;;;;;;;7.35;6.65;;;;;;;21.13;69.49;96051.13;1641824;85;21367;-81
2021/07/05 07:54:32;;;;;;;7.10;6.40;;;;;;;21.19;67.48;96044.84;1654152;85;20943;-81
2021/07/05 07:56:58;;;;;;;7.90;7.10;;;;;;;21.28;68.07;96043.84;1654457;85;21008;-81
2021/07/05 07:59:24;;;;;;;7.30;6.60;;;;;;;21.41;66.91;96046.02;1623931;87;21000;-81
2021/07/05 08:01:49;;;;;;;7.37;6.65;;;;;;;21.58;66.00;96049.79;1654204;85;20960;-81
2021/07/05 08:04:15;;;;;;;7.15;6.55;;;;;;;21.75;66.86;96041.64;1651620;85;20980;-81
2021/07/05 08:06:41;;;;;;;7.15;6.30;;;;;;;21.90;65.58;96041.69;1648868;86;21285;-81
2021/07/05 08:09:08;;;;;;;6.90;6.20;;;;;;;21.99;66.80;96041.45;1640466;86;21408;-81
2021/07/05 08:11:34;;;;;;;7.47;6.37;;;;;;;22.02;67.62;96046.75;1640804;86;20952;-81
2021/07/05 08:14:02;;;;;;;6.90;6.22;;;;;;;22.20;66.01;96052.09;1640516;86;20944;-81
2021/07/05 08:16:28;;;;;;;6.75;6.15;;;;;;;22.28;66.11;96056.84;1661683;86;20998;-81
2021/07/05 08:18:54;;;;;;;7.22;6.53;;;;;;;22.18;64.59;96056.33;1631884;86;20996;-81
2021/07/05 08:21:19;;;;;;;6.75;6.00;;;;;;;22.06;65.96;96057.89;1624930;86;20976;-81
2021/07/05 08:23:45;;;;;;;6.80;6.20;;;;;;;21.94;65.85;96052.53;1649436;86;21070;-81
2021/07/05 08:26:11;;;;;;;7.58;5.90;;;;;;;21.86;65.91;96059.94;1653959;85;20973;-81
2021/07/05 08:28:37;;;;;;;7.70;6.55;;;;;;;21.85;64.61;96050.94;1596342;88;20983;-81
2021/07/05 08:31:04;;;;;;;7.47;6.58;;;;;;;21.95;66.15;96054.91;1605752;87;20949;-81
2021/07/05 08:33:31;;;;;;;7.15;6.45;;;;;;;22.08;66.72;96054.98;1628843;87;21022;-81
2021/07/05 08:35:58;;;;;;;7.10;6.40;;;;;;;22.21;66.48;96051.03;1651238;86;20996;-81
2021/07/05 08:38:26;;;;;;;6.65;5.97;;;;;;;22.30;66.03;96050.27;1646282;86;21424;-81
2021/07/05 08:40:51;;;;;;;8.03;6.97;;;;;;;22.33;66.36;96055.02;1641317;86;20985;-81
2021/07/05 08:43:21;;;;;;;7.15;6.55;;;;;;;22.45;66.16;96050.27;1636860;86;20923;-81
2021/07/05 08:45:46;;;;;;;7.08;6.45;;;;;;;22.60;65.17;96053.42;1658021;85;20977;-81
2021/07/05 08:48:14;;;;;;;7.45;6.75;;;;;;;22.69;64.58;96053.16;1669299;86;20951;-82
2021/07/05 08:50:45;;;;;;;7.65;6.90;;;;;;;22.73;65.11;96052.09;1657004;86;20984;-82
2021/07/05 08:53:11;;;;;;;7.35;6.60;;;;;;;22.81;65.65;96044.16;1641172;86;21048;-81
2021/07/05 08:55:36;;;;;;;7.25;6.58;;;;;;;22.83;65.88;96051.33;1587969;87;21088;-81
2021/07/05 08:58:02;;;;;;;6.70;6.00;;;;;;;22.84;66.68;96048.95;1627055;87;20942;-81
2021/07/05 09:00:29;;;;;;;6.62;5.92;;;;;;;22.86;65.97;96050.80;1606846;87;20934;-81
2021/07/05 09:02:57;;;;;;;6.78;6.08;;;;;;;22.96;64.92;96056.09;1599379;87;20995;-81
2021/07/05 09:05:23;;;;;;;6.47;5.87;;;;;;;22.94;65.47;96052.89;1645984;85;21285;-81
2021/07/05 09:07:59;;;;;;;6.72;6.00;;;;;;;22.94;65.34;96060.83;1647463;86;20971;-81
2021/07/05 09:10:26;;;;;;;7.87;6.70;;;;;;;22.89;65.39;96062.17;1649522;86;20916;-81
2021/07/05 09:13:10;;;;;;;7.00;6.25;;;;;;;22.88;65.96;96061.37;1646054;85;21325;-81
2021/07/05 09:15:51;;;;;;;7.15;6.42;;;;;;;22.89;66.26;96068.27;1623519;86;21359;-82
2021/07/05 09:18:43;;;;;;;6.92;6.22;;;;;;;22.88;66.50;96069.86;1640719;86;21046;-81
2021/07/05 09:21:22;;;;;;;6.72;6.00;;;;;;;22.88;65.87;96069.86;1604463;87;22003;-82
2021/07/05 09:24:04;;;;;;;7.35;6.65;;;;;;;22.93;65.38;96066.66;1645857;86;21051;-81
2021/07/05 09:26:41;;;;;;;7.28;6.53;;;;;;;22.94;66.17;96070.11;1642027;86;20983;-82
2021/07/05 09:29:20;;;;;;;6.90;6.30;;;;;;;22.97;66.23;96064.30;1648549;86;21110;-81
2021/07/05 09:32:00;;;;;;;7.10;6.40;;;;;;;23.01;66.10;96062.69;1640274;86;21075;-81
2021/07/05 09:34:31;;;;;;;8.33;6.58;;;;;;;22.98;66.05;96065.88;1640174;86;21072;-81
2021/07/05 09:37:20;;;;;;;6.85;6.20;;;;;;;22.95;66.52;96060.59;1641234;86;21556;-81
2021/07/05 09:40:07;;;;;;;6.97;6.28;;;;;;;22.93;66.27;96058.72;1601276;87;20993;-81
2021/07/05 09:42:39;;;;;;;6.90;6.25;;;;;;;22.92;66.01;96064.28;1599000;87;21289;-82
2021/07/05 09:45:09;;;;;;;7.08;6.47;;;;;;;22.93;65.93;96069.84;1613303;87;20947;-82
2021/07/05 09:47:35;;;;;;;8.55;7.08;;;;;;;22.81;65.63;96067.47;1628563;86;21278;-81
2021/07/05 09:50:16;;;;;;;8.13;7.10;;;;;;;22.72;65.99;96067.19;1644347;86;21042;-82
2021/07/05 09:52:43;;;;;;;6.97;6.17;;;;;;;22.68;66.21;96079.91;1642809;86;21014;-81
2021/07/05 09:55:16;;;;;;;8.30;6.78;;;;;;;22.61;65.93;96070.10;1628544;86;20995;-82
2021/07/05 09:57:49;;;;;;;7.15;6.45;;;;;;;22.54;65.92;96074.88;1635358;86;21005;-81
2021/07/05 10:00:22;;;;;;;6.55;5.95;;;;;;;22.50;66.24;96079.91;1620753;86;20971;-82
2021/07/05 10:03:08;;;;;;;6.58;5.97;;;;;;;22.58;66.38;96079.91;1620029;86;21020;-81
2021/07/05 10:05:44;;;;;;;7.30;6.60;;;;;;;22.67;64.92;96072.50;1614149;87;21277;-81
2021/07/05 10:08:11;;;;;;;7.05;6.35;;;;;;;22.96;65.08;96070.13;1627305;87;21308;-81
2021/07/05 10:10:40;;;;;;;7.30;6.60;;;;;;;23.19;61.93;96074.58;1614720;88;20999;-82
2021/07/05 10:13:09;;;;;;;7.90;7.05;;;;;;;23.42;64.13;96071.85;1634962;86;20994;-82
2021/07/05 10:15:35;;;;;;;7.35;6.53;;;;;;;23.70;64.22;96063.30;1644920;86;21023;-82
2021/07/05 10:18:02;;;;;;;7.17;6.50;;;;;;;24.01;59.85;96067.12;1638449;87;21026;-81
2021/07/05 10:20:30;;;;;;;6.90;6.15;;;;;;;24.21;60.29;96065.66;1639118;87;21001;-82
2021/07/05 10:23:03;;;;;;;6.83;6.20;;;;;;;24.32;61.37;96068.55;1636403;86;21428;-82
2021/07/05 10:25:31;;;;;;;7.08;6.37;;;;;;;24.46;61.05;96064.20;1638730;86;20971;-82
2021/07/05 10:27:56;;;;;;;6.53;5.62;;;;;;;24.67;58.89;96065.36;1597041;87;21065;-82
2021/07/05 10:30:23;;;;;;;5.97;5.37;;;;;;;24.91;56.51;96062.23;1613436;87;21075;-82
2021/07/05 10:32:48;;;;;;;6.83;5.20;;;;;;;25.14;54.72;96058.04;1640960;87;22035;-82
2021/07/05 10:35:17;;;;;;;5.85;5.35;;;;;;;25.25;55.41;96065.38;1605860;88;21016;-82
2021/07/05 10:38:11;;;;;;;5.22;4.78;;;;;;;25.36;53.53;96064.17;1619545;87;21289;-82
2021/07/05 10:40:45;;;;;;;6.05;5.55;;;;;;;25.37;51.16;96065.22;1608434;87;20983;-82
2021/07/05 10:43:15;;;;;;;5.65;5.15;;;;;;;25.37;52.19;96069.75;1623557;87;20993;-82
2021/07/05 10:45:50;;;;;;;6.70;5.50;;;;;;;25.34;53.92;96067.13;1637996;86;20972;-82
2021/07/05 10:48:40;;;;;;;6.37;5.78;;;;;;;25.29;54.34;96064.52;1598386;87;21357;-82
2021/07/05 10:51:07;;;;;;;6.08;5.22;;;;;;;25.22;54.39;96066.74;1622816;87;20995;-82
2021/07/05 10:53:45;;;;;;;6.60;5.97;;;;;;;25.21;55.89;96065.67;1633437;87;21033;-81
2021/07/05 10:56:32;;;;;;;6.47;5.95;;;;;;;25.15;56.13;96068.93;1640372;87;20962;-82
2021/07/05 10:59:16;;;;;;;5.92;5.42;;;;;;;25.07;54.53;96066.36;1636949;86;21020;-82
2021/07/05 11:01:47;;;;;;;6.15;5.65;;;;;;;24.89;55.38;96070.20;1620335;87;21003;-81
2021/07/05 11:04:22;;;;;;;6.33;5.10;;;;;;;24.90;55.24;96065.17;1621769;86;21069;-82
2021/07/05 11:06:49;;;;;;;5.72;5.22;;;;;;;25.10;55.85;96062.34;1638701;86;21012;-82
2021/07/05 11:09:20;;;;;;;6.12;5.62;;;;;;;25.26;53.34;96058.45;1654417;85;21241;-81
2021/07/05 11:11:58;;;;;;;5.67;5.15;;;;;;;25.28;53.54;96065.60;1653169;85;21028;-81
2021/07/05 11:14:33;;;;;;;6.20;5.70;;;;;;;25.21;54.35;96067.79;1654472;85;20960;-82
2021/07/05 11:17:10;;;;;;;5.65;5.00;;;;;;;25.10;55.48;96070.31;1654237;85;21040;-81
2021/07/05 11:19:47;;;;;;;6.47;5.87;;;;;;;25.09;55.16;96069.52;1657473;85;21359;-82
2021/07/05 11:22:38;;;;;;;5.78;5.17;;;;;;;25.22;51.66;96067.25;1648763;85;21029;-81
2021/07/05 11:25:21;;;;;;;5.37;4.87;;;;;;;25.50;51.20;96058.97;1667861;85;21319;-82
2021/07/05 11:28:02;;;;;;;5.58;5.08;;;;;;;25.87;50.27;96064.92;1650183;85;20968;-82
2021/07/05 11:30:38;;;;;;;5.72;5.15;;;;;;;25.80;49.70;96065.82;1640398;86;21348;-82
2021/07/05 11:33:15;;;;;;;6.12;5.22;;;;;;;25.67;49.37;96067.27;1636723;85;21253;-82
2021/07/05 11:35:53;;;;;;;6.42;5.75;;;;;;;25.52;52.18;96069.58;1654321;85;21019;-81
2021/07/05 11:38:39;;;;;;;5.83;5.25;;;;;;;25.51;52.15;96072.52;1648993;85;21263;-82
2021/07/05 11:41:14;;;;;;;7.22;5.65;;;;;;;25.76;50.18;96061.61;1649469;85;20928;-82